Thursday, June 21, 2018, 6:31 AM EDT
Back to Local

KWAL, Wallops Flight Fac Airport

Location: Wallops Island, VA, United States Lat: 37.933
Local Time: 6:31 AM EDT (10:31 GMT) Lon: -75.467
Time Zone: US/Eastern Elev: 39 ft

Show me the last for .
Show Decoded

2018-06-21 05:54 METAR KWAL 210954Z AUTO 30004KT 10SM SCT060 24/23 A2975 RMK AO2 SLP072 T02440233
                 =
2018-06-21 04:54 METAR KWAL 210854Z AUTO 26003KT 10SM SCT017 24/24 A2974 RMK AO2 SLP066 T02440239
                 56000 =
2018-06-21 04:52 METAR KWAL 210852Z AUTO 27004KT 10SM SCT017 24/24 A2974 RMK AO2 =
2018-06-21 04:04 METAR KWAL 210804Z AUTO 24004KT 10SM BKN016 24/24 A2973 RMK AO2 T02440239 =
2018-06-21 03:54 METAR KWAL 210754Z AUTO 25004KT 9SM SCT016 24/24 A2973 RMK AO2 SLP065 T02440239
                 =
2018-06-21 02:54 METAR KWAL 210654Z AUTO 00000KT 8SM CLR 25/24 A2974 RMK AO2 SLP067 T02500244 =
2018-06-21 01:54 METAR KWAL 210554Z AUTO 23006KT 6SM BR SCT017 SCT024 25/24 A2977 RMK AO2 SLP077
                 60003 T02500244 10256 20250 57013 =
2018-06-21 01:20 METAR KWAL 210520Z AUTO 23005KT 6SM BR FEW015 25/24 A2977 RMK AO2 T02500244 =
2018-06-21 00:59 METAR KWAL 210459Z AUTO 21006KT 6SM BR FEW008 SCT011 BKN017 25/25 A2977 RMK AO2
                 T02500250 =
2018-06-21 00:54 METAR KWAL 210454Z AUTO 21005KT 7SM BKN011 BKN017 BKN034 25/25 A2977 RMK AO2
                 RAB22E39 CIG 007V014 SLP079 P0001 T02500250 402830244 =
2018-06-21 00:46 METAR KWAL 210446Z AUTO 20006KT 7SM BKN011 BKN034 26/25 A2978 RMK AO2 RAB22E39
                 CIG 007V013 P0001 T02560250 =
2018-06-21 00:37 METAR KWAL 210437Z AUTO 21006KT 8SM VCTS -RA SCT012 BKN036 26/25 A2979 =
2018-06-20 23:54 METAR KWAL 210354Z AUTO 20005KT 9SM CLR 25/24 A2980 RMK AO2 LTG DSNT N SLP088
                 T02500244 =
2018-06-20 22:54 METAR KWAL 210254Z AUTO 20007KT 10SM CLR 25/24 A2981 RMK AO2 SLP090 60002
                 T02500244 52002 =
2018-06-20 22:15 METAR KWAL 210215Z AUTO 20005KT 10SM FEW008 25/24 A2982 RMK AO2 T02500244 =
2018-06-20 21:54 METAR KWAL 210154Z AUTO 19009KT 10SM CLR 25/24 A2982 RMK AO2 RAE09 PRESRR SLP094
                 P0000 T02500239 =
2018-06-20 20:54 METAR KWAL 210054Z AUTO 18007KT 9SM -RA FEW075 FEW090 SCT110 25/24 A2979 RMK AO2
                 SLP084 P0002 T02500239 =
2018-06-20 19:54 METAR KWAL 202354Z AUTO 17006KT 10SM -RA SCT090 SCT110 26/23 A2980 RMK AO2 RAB38
                 SLP087 P0000 60000 T02560233 10283 20256 55006 =
2018-06-20 18:54 METAR KWAL 202254Z AUTO 17008KT 10SM CLR 26/23 A2979 RMK AO2 SLP085 T02560233 =
2018-06-20 17:54 METAR KWAL 202154Z 18008KT 10SM CLR 27/23 A2979 RMK AO2 SLP086 T02670233 =
2018-06-20 16:54 METAR KWAL 202054Z 16009KT 10SM CLR 28/24 A2982 RMK AO2 SLP093 T02780239 56011 =
2018-06-20 15:54 METAR KWAL 201954Z 19010KT 10SM CLR 28/24 A2982 RMK AO2 SLP094 T02780239 =
2018-06-20 14:54 METAR KWAL 201854Z 15008KT 10SM CLR 28/24 A2984 RMK AO2 SLP103 T02830239 =
2018-06-20 13:54 METAR KWAL 201754Z 14010KT 10SM FEW065 28/23 A2985 RMK AO2 SLP104 T02780233
                 10283 20250 58010 =
2018-06-20 13:40 METAR KWAL 201740Z 15008KT 10SM SCT015 BKN065 27/23 A2985 RMK AO2 T02720233 =
2018-06-20 12:54 METAR KWAL 201654Z 17008KT 10SM BKN014 BKN065 28/24 A2986 RMK AO2 SLP109
                 T02780244 =
2018-06-20 12:52 METAR KWAL 201652Z 15010KT 10SM BKN014 BKN050 BKN065 28/24 A2986 RMK AO2 =
2018-06-20 12:32 METAR KWAL 201632Z 16007KT 10SM SCT015 BKN050 BKN065 28/24 A2987 RMK AO2
                 T02780244 =
2018-06-20 12:08 METAR KWAL 201608Z 17007KT 10SM BKN016 BKN060 27/24 A2987 =
2018-06-20 12:01 METAR KWAL 201601Z 16007KT 10SM BKN014 BKN060 28/24 A2987 =
2018-06-20 11:54 METAR KWAL 201554Z 17008KT 10SM SCT014 28/24 A2988 RMK AO2 SLP114 T02780244 =
2018-06-20 11:09 METAR KWAL 201509Z 16008KT 10SM FEW012 28/24 A2988 RMK AO2 T02780244 =
2018-06-20 10:54 METAR KWAL 201454Z 14006KT 10SM SCT011 BKN017 27/24 A2988 RMK AO2 SLP115
                 T02720244 51001 =
2018-06-20 10:01 METAR KWAL 201401Z 12005KT 9SM OVC010 26/24 A2988 =
2018-06-20 09:54 METAR KWAL 201354Z 13006KT 10SM BKN007 BKN010 27/24 A2988 RMK AO2 SLP115
                 T02670239 =
2018-06-20 09:50 METAR KWAL 201350Z 13004KT 9SM OVC010 27/24 A2988 RMK AO2 CIG 008V012 =
2018-06-20 09:40 METAR KWAL 201340Z 13005KT 9SM OVC008 27/24 A2988 RMK AO2 CIG 006V012 T02670244
                 =
2018-06-20 08:54 METAR KWAL 201254Z 14004KT 7SM OVC006 25/24 A2988 RMK AO2 SLP114 T02500239 =
2018-06-20 07:54 METAR KWAL 201154Z COR 13005KT 7SM BKN006 BKN010 BKN070 26/24 A2987 RMK AO2
                 SLP113 70049 T02560244 10256 20244 51010 =
2018-06-20 07:21 METAR KWAL 201121Z AUTO 12003KT 8SM BKN006 25/24 A2987 RMK AO2 CIG 004V008
                 T02500239 =
2018-06-20 07:02 METAR KWAL 201102Z AUTO 00000KT 4SM BR BKN004 25/24 A2986 RMK AO2 T02500244 =
2018-06-20 06:54 METAR KWAL 201054Z AUTO 00000KT 2 1/2SM BR BKN004 24/24 A2986 RMK AO2 SLP109
                 T02440244 =
2018-06-20 06:44 METAR KWAL 201044Z AUTO 00000KT 2SM BR OVC003 24/24 A2986 RMK AO2 T02440244 =

Support USWX by starting your Amazon purchase here.